sensor_id;sensor_type;location;lat;lon;timestamp;temperature;humidity
13970;DHT22;7057;49.984;8.404;2023-03-16T00:00:42;0.30;99.90
13970;DHT22;7057;49.984;8.404;2023-03-16T00:03:11;0.30;99.90
13970;DHT22;7057;49.984;8.404;2023-03-16T00:05:44;0.30;99.90
13970;DHT22;7057;49.984;8.404;2023-03-16T00:08:12;0.30;99.90
13970;DHT22;7057;49.984;8.404;2023-03-16T00:10:40;0.20;99.90
13970;DHT22;7057;49.984;8.404;2023-03-16T00:13:12;0.20;99.90
13970;DHT22;7057;49.984;8.404;2023-03-16T00:15:39;0.30;99.90
13970;DHT22;7057;49.984;8.404;2023-03-16T00:18:07;0.30;99.90
13970;DHT22;7057;49.984;8.404;2023-03-16T00:20:35;0.30;99.90
13970;DHT22;7057;49.984;8.404;2023-03-16T00:23:02;0.30;99.90
13970;DHT22;7057;49.984;8.404;2023-03-16T00:25:30;0.30;99.90
13970;DHT22;7057;49.984;8.404;2023-03-16T00:27:59;0.30;99.90
13970;DHT22;7057;49.984;8.404;2023-03-16T00:30:28;0.30;99.90
13970;DHT22;7057;49.984;8.404;2023-03-16T00:32:56;0.30;99.90
13970;DHT22;7057;49.984;8.404;2023-03-16T00:35:23;0.30;99.90
13970;DHT22;7057;49.984;8.404;2023-03-16T00:37:52;0.20;99.90
13970;DHT22;7057;49.984;8.404;2023-03-16T00:40:22;0.20;99.90
13970;DHT22;7057;49.984;8.404;2023-03-16T00:42:49;0.20;99.90
13970;DHT22;7057;49.984;8.404;2023-03-16T00:45:16;0.20;99.90
13970;DHT22;7057;49.984;8.404;2023-03-16T00:47:43;0.10;99.90
13970;DHT22;7057;49.984;8.404;2023-03-16T00:50:11;0.10;99.90
13970;DHT22;7057;49.984;8.404;2023-03-16T00:52:38;0.10;99.90
13970;DHT22;7057;49.984;8.404;2023-03-16T00:55:07;0.10;99.90
13970;DHT22;7057;49.984;8.404;2023-03-16T00:57:34;0.00;99.90
13970;DHT22;7057;49.984;8.404;2023-03-16T01:00:02;0.00;99.90
13970;DHT22;7057;49.984;8.404;2023-03-16T01:02:37;0.00;99.90
13970;DHT22;7057;49.984;8.404;2023-03-16T01:05:06;0.00;99.90
13970;DHT22;7057;49.984;8.404;2023-03-16T01:07:34;0.00;99.90
13970;DHT22;7057;49.984;8.404;2023-03-16T01:10:02;0.00;99.90
13970;DHT22;7057;49.984;8.404;2023-03-16T01:12:31;0.00;99.90
13970;DHT22;7057;49.984;8.404;2023-03-16T01:14:59;0.00;99.90
13970;DHT22;7057;49.984;8.404;2023-03-16T01:17:26;0.00;99.90
13970;DHT22;7057;49.984;8.404;2023-03-16T01:19:53;0.00;99.90
13970;DHT22;7057;49.984;8.404;2023-03-16T01:22:20;0.00;99.90
13970;DHT22;7057;49.984;8.404;2023-03-16T01:24:48;0.10;99.90
13970;DHT22;7057;49.984;8.404;2023-03-16T01:27:15;0.10;99.90
13970;DHT22;7057;49.984;8.404;2023-03-16T01:29:43;0.10;99.90
13970;DHT22;7057;49.984;8.404;2023-03-16T01:32:11;0.10;99.90
13970;DHT22;7057;49.984;8.404;2023-03-16T01:34:38;0.10;99.90
13970;DHT22;7057;49.984;8.404;2023-03-16T01:37:06;0.20;99.90
13970;DHT22;7057;49.984;8.404;2023-03-16T01:39:34;0.20;99.90
13970;DHT22;7057;49.984;8.404;2023-03-16T01:42:01;0.20;99.90
13970;DHT22;7057;49.984;8.404;2023-03-16T01:44:28;0.20;99.90
13970;DHT22;7057;49.984;8.404;2023-03-16T01:47:01;0.20;99.90
13970;DHT22;7057;49.984;8.404;2023-03-16T01:49:30;0.20;99.90
13970;DHT22;7057;49.984;8.404;2023-03-16T01:52:02;0.20;99.90
13970;DHT22;7057;49.984;8.404;2023-03-16T01:54:32;0.20;99.90
13970;DHT22;7057;49.984;8.404;2023-03-16T01:57:04;0.20;99.90
13970;DHT22;7057;49.984;8.404;2023-03-16T01:59:35;0.20;99.90
13970;DHT22;7057;49.984;8.404;2023-03-16T02:02:05;0.10;99.90
13970;DHT22;7057;49.984;8.404;2023-03-16T02:04:40;0.10;99.90
13970;DHT22;7057;49.984;8.404;2023-03-16T02:07:09;0.10;99.90
13970;DHT22;7057;49.984;8.404;2023-03-16T02:09:39;0.10;99.90
13970;DHT22;7057;49.984;8.404;2023-03-16T02:12:09;0.10;99.90
13970;DHT22;7057;49.984;8.404;2023-03-16T02:14:44;0.10;99.90
13970;DHT22;7057;49.984;8.404;2023-03-16T02:17:14;0.10;99.90
13970;DHT22;7057;49.984;8.404;2023-03-16T02:19:49;0.10;99.90
13970;DHT22;7057;49.984;8.404;2023-03-16T02:22:17;0.10;99.90
13970;DHT22;7057;49.984;8.404;2023-03-16T02:24:45;0.10;99.90
13970;DHT22;7057;49.984;8.404;2023-03-16T02:27:16;0.10;99.90
13970;DHT22;7057;49.984;8.404;2023-03-16T02:30:01;0.10;99.90
13970;DHT22;7057;49.984;8.404;2023-03-16T02:32:30;0.10;99.90
13970;DHT22;7057;49.984;8.404;2023-03-16T02:34:59;0.00;99.90
13970;DHT22;7057;49.984;8.404;2023-03-16T02:37:27;0.00;99.90
13970;DHT22;7057;49.984;8.404;2023-03-16T02:39:55;0.00;99.90
13970;DHT22;7057;49.984;8.404;2023-03-16T02:42:24;0.00;99.90
13970;DHT22;7057;49.984;8.404;2023-03-16T02:44:56;0.00;99.90
13970;DHT22;7057;49.984;8.404;2023-03-16T02:47:30;0.10;99.90
13970;DHT22;7057;49.984;8.404;2023-03-16T02:49:58;0.10;99.90
13970;DHT22;7057;49.984;8.404;2023-03-16T02:52:25;0.10;99.90
13970;DHT22;7057;49.984;8.404;2023-03-16T02:54:52;0.20;99.90
13970;DHT22;7057;49.984;8.404;2023-03-16T02:57:19;0.20;99.90
13970;DHT22;7057;49.984;8.404;2023-03-16T02:59:47;0.20;99.90
13970;DHT22;7057;49.984;8.404;2023-03-16T03:02:15;0.20;99.90
13970;DHT22;7057;49.984;8.404;2023-03-16T03:04:42;0.20;99.90
13970;DHT22;7057;49.984;8.404;2023-03-16T03:07:11;0.20;99.90
13970;DHT22;7057;49.984;8.404;2023-03-16T03:09:39;0.20;99.90
13970;DHT22;7057;49.984;8.404;2023-03-16T03:12:08;0.20;99.90
13970;DHT22;7057;49.984;8.404;2023-03-16T03:14:35;0.20;99.90
13970;DHT22;7057;49.984;8.404;2023-03-16T03:17:04;0.20;99.90
13970;DHT22;7057;49.984;8.404;2023-03-16T03:19:33;0.20;99.90
13970;DHT22;7057;49.984;8.404;2023-03-16T03:22:02;0.20;99.90
13970;DHT22;7057;49.984;8.404;2023-03-16T03:24:32;0.20;99.90
13970;DHT22;7057;49.984;8.404;2023-03-16T03:27:00;0.20;99.90
13970;DHT22;7057;49.984;8.404;2023-03-16T03:29:30;0.20;99.90
13970;DHT22;7057;49.984;8.404;2023-03-16T03:31:59;0.10;99.90
13970;DHT22;7057;49.984;8.404;2023-03-16T03:34:27;0.10;99.90
13970;DHT22;7057;49.984;8.404;2023-03-16T03:36:56;0.10;99.90
13970;DHT22;7057;49.984;8.404;2023-03-16T03:39:24;0.20;99.90
13970;DHT22;7057;49.984;8.404;2023-03-16T03:41:51;0.20;99.90
13970;DHT22;7057;49.984;8.404;2023-03-16T03:44:19;0.10;99.90
13970;DHT22;7057;49.984;8.404;2023-03-16T03:46:46;0.10;99.90
13970;DHT22;7057;49.984;8.404;2023-03-16T03:49:14;0.10;99.90
13970;DHT22;7057;49.984;8.404;2023-03-16T03:51:41;0.10;99.90
13970;DHT22;7057;49.984;8.404;2023-03-16T03:54:10;0.10;99.90
13970;DHT22;7057;49.984;8.404;2023-03-16T03:56:37;0.10;99.90
13970;DHT22;7057;49.984;8.404;2023-03-16T03:59:04;0.10;99.90
13970;DHT22;7057;49.984;8.404;2023-03-16T04:01:31;0.20;99.90
13970;DHT22;7057;49.984;8.404;2023-03-16T04:03:59;0.20;99.90
13970;DHT22;7057;49.984;8.404;2023-03-16T04:06:26;0.20;99.90
13970;DHT22;7057;49.984;8.404;2023-03-16T04:08:53;0.30;99.90
13970;DHT22;7057;49.984;8.404;2023-03-16T04:11:21;0.20;99.90
13970;DHT22;7057;49.984;8.404;2023-03-16T04:13:50;0.20;99.90
13970;DHT22;7057;49.984;8.404;2023-03-16T04:16:18;0.20;99.90
13970;DHT22;7057;49.984;8.404;2023-03-16T04:18:45;0.10;99.90
13970;DHT22;7057;49.984;8.404;2023-03-16T04:21:14;0.10;99.90
13970;DHT22;7057;49.984;8.404;2023-03-16T04:23:42;0.00;99.90
13970;DHT22;7057;49.984;8.404;2023-03-16T04:26:10;0.00;99.90
13970;DHT22;7057;49.984;8.404;2023-03-16T04:28:38;0.00;99.90
13970;DHT22;7057;49.984;8.404;2023-03-16T04:31:07;0.00;99.90
13970;DHT22;7057;49.984;8.404;2023-03-16T04:33:36;0.00;99.90
13970;DHT22;7057;49.984;8.404;2023-03-16T04:36:05;0.00;99.90
13970;DHT22;7057;49.984;8.404;2023-03-16T04:38:34;0.00;99.90
13970;DHT22;7057;49.984;8.404;2023-03-16T04:41:02;0.00;99.90
13970;DHT22;7057;49.984;8.404;2023-03-16T04:43:30;0.10;99.90
13970;DHT22;7057;49.984;8.404;2023-03-16T04:46:00;0.00;99.90
13970;DHT22;7057;49.984;8.404;2023-03-16T04:48:28;0.00;99.90
13970;DHT22;7057;49.984;8.404;2023-03-16T04:50:55;0.00;99.90
13970;DHT22;7057;49.984;8.404;2023-03-16T04:53:22;0.00;99.90
13970;DHT22;7057;49.984;8.404;2023-03-16T04:55:50;0.00;99.90
13970;DHT22;7057;49.984;8.404;2023-03-16T04:58:17;0.00;99.90
13970;DHT22;7057;49.984;8.404;2023-03-16T05:00:44;-0.10;99.90
13970;DHT22;7057;49.984;8.404;2023-03-16T05:03:13;0.00;99.90
13970;DHT22;7057;49.984;8.404;2023-03-16T05:05:41;-0.10;99.90
13970;DHT22;7057;49.984;8.404;2023-03-16T05:08:08;0.00;99.90
13970;DHT22;7057;49.984;8.404;2023-03-16T05:10:37;0.00;99.90
13970;DHT22;7057;49.984;8.404;2023-03-16T05:13:05;0.00;99.90
13970;DHT22;7057;49.984;8.404;2023-03-16T05:15:32;0.10;99.90
13970;DHT22;7057;49.984;8.404;2023-03-16T05:18:00;0.20;99.90
13970;DHT22;7057;49.984;8.404;2023-03-16T05:20:28;0.20;99.90
13970;DHT22;7057;49.984;8.404;2023-03-16T05:22:56;0.20;99.90
13970;DHT22;7057;49.984;8.404;2023-03-16T05:25:23;0.30;99.90
13970;DHT22;7057;49.984;8.404;2023-03-16T05:27:52;0.20;99.90
13970;DHT22;7057;49.984;8.404;2023-03-16T05:30:20;0.20;99.90
13970;DHT22;7057;49.984;8.404;2023-03-16T05:32:47;0.20;99.90
13970;DHT22;7057;49.984;8.404;2023-03-16T05:35:14;0.20;99.90
13970;DHT22;7057;49.984;8.404;2023-03-16T05:37:43;0.20;99.90
13970;DHT22;7057;49.984;8.404;2023-03-16T05:40:12;0.30;99.90
13970;DHT22;7057;49.984;8.404;2023-03-16T05:42:43;0.30;99.90
13970;DHT22;7057;49.984;8.404;2023-03-16T05:45:10;0.30;99.90
13970;DHT22;7057;49.984;8.404;2023-03-16T05:47:38;0.30;99.90
13970;DHT22;7057;49.984;8.404;2023-03-16T05:50:06;0.30;99.90
13970;DHT22;7057;49.984;8.404;2023-03-16T05:52:36;0.40;99.90
13970;DHT22;7057;49.984;8.404;2023-03-16T05:55:06;0.40;99.90
13970;DHT22;7057;49.984;8.404;2023-03-16T05:57:34;0.50;99.90
13970;DHT22;7057;49.984;8.404;2023-03-16T06:00:02;0.50;99.90
13970;DHT22;7057;49.984;8.404;2023-03-16T06:02:36;0.60;99.90
13970;DHT22;7057;49.984;8.404;2023-03-16T06:05:04;0.70;99.90
13970;DHT22;7057;49.984;8.404;2023-03-16T06:07:32;0.60;99.90
13970;DHT22;7057;49.984;8.404;2023-03-16T06:09:59;0.60;99.90
13970;DHT22;7057;49.984;8.404;2023-03-16T06:12:28;0.70;99.90
13970;DHT22;7057;49.984;8.404;2023-03-16T06:14:55;0.80;99.90
13970;DHT22;7057;49.984;8.404;2023-03-16T06:17:22;0.80;99.90
13970;DHT22;7057;49.984;8.404;2023-03-16T06:19:49;0.90;99.90
13970;DHT22;7057;49.984;8.404;2023-03-16T06:22:16;1.00;99.90
13970;DHT22;7057;49.984;8.404;2023-03-16T06:24:44;1.00;99.90
13970;DHT22;7057;49.984;8.404;2023-03-16T06:27:11;1.00;99.90
13970;DHT22;7057;49.984;8.404;2023-03-16T06:29:40;1.00;99.90
13970;DHT22;7057;49.984;8.404;2023-03-16T06:32:07;1.10;99.90
13970;DHT22;7057;49.984;8.404;2023-03-16T06:34:35;1.20;99.90
13970;DHT22;7057;49.984;8.404;2023-03-16T06:37:02;1.30;99.90
13970;DHT22;7057;49.984;8.404;2023-03-16T06:39:29;1.30;99.90
13970;DHT22;7057;49.984;8.404;2023-03-16T06:41:57;1.40;99.90
13970;DHT22;7057;49.984;8.404;2023-03-16T06:44:24;1.50;99.90
13970;DHT22;7057;49.984;8.404;2023-03-16T06:46:52;1.50;99.90
13970;DHT22;7057;49.984;8.404;2023-03-16T06:49:20;1.60;99.90
13970;DHT22;7057;49.984;8.404;2023-03-16T06:51:47;1.60;99.90
13970;DHT22;7057;49.984;8.404;2023-03-16T06:54:14;1.70;99.90
13970;DHT22;7057;49.984;8.404;2023-03-16T06:56:41;1.80;99.90
13970;DHT22;7057;49.984;8.404;2023-03-16T06:59:08;2.00;99.90
13970;DHT22;7057;49.984;8.404;2023-03-16T07:01:35;2.00;99.90
13970;DHT22;7057;49.984;8.404;2023-03-16T07:04:04;2.00;99.90
13970;DHT22;7057;49.984;8.404;2023-03-16T07:06:31;2.00;99.90
13970;DHT22;7057;49.984;8.404;2023-03-16T07:08:59;2.10;99.90
13970;DHT22;7057;49.984;8.404;2023-03-16T07:11:26;2.20;99.90
13970;DHT22;7057;49.984;8.404;2023-03-16T07:13:53;2.40;99.90
13970;DHT22;7057;49.984;8.404;2023-03-16T07:16:20;2.50;99.90
13970;DHT22;7057;49.984;8.404;2023-03-16T07:18:48;2.60;99.90
13970;DHT22;7057;49.984;8.404;2023-03-16T07:21:16;2.60;99.90
13970;DHT22;7057;49.984;8.404;2023-03-16T07:23:44;2.70;99.90
13970;DHT22;7057;49.984;8.404;2023-03-16T07:26:11;2.80;99.90
13970;DHT22;7057;49.984;8.404;2023-03-16T07:28:39;2.80;99.90
13970;DHT22;7057;49.984;8.404;2023-03-16T07:31:06;2.90;99.90
13970;DHT22;7057;49.984;8.404;2023-03-16T07:33:36;2.90;99.90
13970;DHT22;7057;49.984;8.404;2023-03-16T07:36:03;3.00;99.90
13970;DHT22;7057;49.984;8.404;2023-03-16T07:38:32;3.00;99.90
13970;DHT22;7057;49.984;8.404;2023-03-16T07:40:59;2.90;99.90
13970;DHT22;7057;49.984;8.404;2023-03-16T07:43:27;2.90;99.90
13970;DHT22;7057;49.984;8.404;2023-03-16T07:45:55;3.10;99.90
13970;DHT22;7057;49.984;8.404;2023-03-16T07:48:22;3.20;99.90
13970;DHT22;7057;49.984;8.404;2023-03-16T07:50:50;3.30;99.90
13970;DHT22;7057;49.984;8.404;2023-03-16T07:53:17;3.50;99.90
13970;DHT22;7057;49.984;8.404;2023-03-16T07:55:46;3.60;99.90
13970;DHT22;7057;49.984;8.404;2023-03-16T07:58:13;3.60;99.90
13970;DHT22;7057;49.984;8.404;2023-03-16T08:00:40;3.70;99.90
13970;DHT22;7057;49.984;8.404;2023-03-16T08:03:08;3.70;99.90
13970;DHT22;7057;49.984;8.404;2023-03-16T08:05:35;3.80;99.90
13970;DHT22;7057;49.984;8.404;2023-03-16T08:08:03;3.90;99.90
13970;DHT22;7057;49.984;8.404;2023-03-16T08:10:30;4.00;99.90
13970;DHT22;7057;49.984;8.404;2023-03-16T08:13:00;4.00;99.90
13970;DHT22;7057;49.984;8.404;2023-03-16T08:15:29;4.10;99.90
13970;DHT22;7057;49.984;8.404;2023-03-16T08:17:58;4.20;99.90
13970;DHT22;7057;49.984;8.404;2023-03-16T08:20:27;4.40;99.90
13970;DHT22;7057;49.984;8.404;2023-03-16T08:22:54;4.60;99.90
13970;DHT22;7057;49.984;8.404;2023-03-16T08:25:21;4.70;99.90
13970;DHT22;7057;49.984;8.404;2023-03-16T08:27:48;4.80;99.90
13970;DHT22;7057;49.984;8.404;2023-03-16T08:30:17;4.90;99.90
13970;DHT22;7057;49.984;8.404;2023-03-16T08:32:44;5.00;99.90
13970;DHT22;7057;49.984;8.404;2023-03-16T08:35:13;5.10;99.90
13970;DHT22;7057;49.984;8.404;2023-03-16T08:37:41;5.30;99.90
13970;DHT22;7057;49.984;8.404;2023-03-16T08:40:10;5.50;99.90
13970;DHT22;7057;49.984;8.404;2023-03-16T08:42:39;5.50;99.90
13970;DHT22;7057;49.984;8.404;2023-03-16T08:45:08;5.60;99.90
13970;DHT22;7057;49.984;8.404;2023-03-16T08:47:37;5.70;99.90
13970;DHT22;7057;49.984;8.404;2023-03-16T08:50:06;5.80;99.90
13970;DHT22;7057;49.984;8.404;2023-03-16T08:52:33;5.90;99.90
13970;DHT22;7057;49.984;8.404;2023-03-16T08:55:01;6.10;99.90
13970;DHT22;7057;49.984;8.404;2023-03-16T08:57:30;6.30;99.90
13970;DHT22;7057;49.984;8.404;2023-03-16T08:59:57;6.50;99.90
13970;DHT22;7057;49.984;8.404;2023-03-16T09:02:25;6.70;99.90
13970;DHT22;7057;49.984;8.404;2023-03-16T09:04:53;6.90;99.90
13970;DHT22;7057;49.984;8.404;2023-03-16T09:07:21;7.00;99.90
13970;DHT22;7057;49.984;8.404;2023-03-16T09:09:48;7.10;99.90
13970;DHT22;7057;49.984;8.404;2023-03-16T09:12:15;7.40;99.90
13970;DHT22;7057;49.984;8.404;2023-03-16T09:14:42;7.50;99.90
13970;DHT22;7057;49.984;8.404;2023-03-16T09:17:10;7.50;99.90
13970;DHT22;7057;49.984;8.404;2023-03-16T09:19:37;7.50;99.90
13970;DHT22;7057;49.984;8.404;2023-03-16T09:22:06;7.60;99.90
13970;DHT22;7057;49.984;8.404;2023-03-16T09:24:33;7.90;99.90
13970;DHT22;7057;49.984;8.404;2023-03-16T09:27:01;8.10;99.90
13970;DHT22;7057;49.984;8.404;2023-03-16T09:29:28;8.20;99.90
13970;DHT22;7057;49.984;8.404;2023-03-16T09:31:55;8.30;99.90
13970;DHT22;7057;49.984;8.404;2023-03-16T09:34:22;8.50;99.90
13970;DHT22;7057;49.984;8.404;2023-03-16T09:36:49;8.30;99.90
13970;DHT22;7057;49.984;8.404;2023-03-16T09:39:20;8.50;99.90
13970;DHT22;7057;49.984;8.404;2023-03-16T09:41:51;8.80;99.90
13970;DHT22;7057;49.984;8.404;2023-03-16T09:44:32;9.00;99.90
13970;DHT22;7057;49.984;8.404;2023-03-16T09:47:04;9.10;99.90
13970;DHT22;7057;49.984;8.404;2023-03-16T09:49:36;9.00;99.90
13970;DHT22;7057;49.984;8.404;2023-03-16T09:52:11;8.90;99.90
13970;DHT22;7057;49.984;8.404;2023-03-16T09:54:47;8.90;99.90
13970;DHT22;7057;49.984;8.404;2023-03-16T09:57:23;9.10;99.90
13970;DHT22;7057;49.984;8.404;2023-03-16T09:59:52;9.10;99.90
13970;DHT22;7057;49.984;8.404;2023-03-16T10:02:46;8.90;99.90
13970;DHT22;7057;49.984;8.404;2023-03-16T10:05:21;8.60;99.90
13970;DHT22;7057;49.984;8.404;2023-03-16T10:07:52;8.60;99.90
13970;DHT22;7057;49.984;8.404;2023-03-16T10:11:01;8.70;99.90
13970;DHT22;7057;49.984;8.404;2023-03-16T10:13:35;9.00;99.90
13970;DHT22;7057;49.984;8.404;2023-03-16T10:16:07;9.20;99.90
13970;DHT22;7057;49.984;8.404;2023-03-16T10:18:41;9.30;99.90
13970;DHT22;7057;49.984;8.404;2023-03-16T10:21:14;9.40;99.90
13970;DHT22;7057;49.984;8.404;2023-03-16T10:23:42;9.50;99.90
13970;DHT22;7057;49.984;8.404;2023-03-16T10:26:16;9.70;99.90
13970;DHT22;7057;49.984;8.404;2023-03-16T10:28:44;9.80;99.90
13970;DHT22;7057;49.984;8.404;2023-03-16T10:31:14;10.00;99.90
13970;DHT22;7057;49.984;8.404;2023-03-16T10:33:42;10.10;99.90
13970;DHT22;7057;49.984;8.404;2023-03-16T10:36:13;10.30;99.90
13970;DHT22;7057;49.984;8.404;2023-03-16T10:38:44;10.50;99.90
13970;DHT22;7057;49.984;8.404;2023-03-16T10:41:27;10.40;99.90
13970;DHT22;7057;49.984;8.404;2023-03-16T10:43:56;10.40;99.90
13970;DHT22;7057;49.984;8.404;2023-03-16T10:46:27;10.50;99.90
13970;DHT22;7057;49.984;8.404;2023-03-16T10:48:56;10.60;99.90
13970;DHT22;7057;49.984;8.404;2023-03-16T10:51:27;10.80;99.90
13970;DHT22;7057;49.984;8.404;2023-03-16T10:54:02;10.80;99.90
13970;DHT22;7057;49.984;8.404;2023-03-16T10:56:34;10.90;99.90
13970;DHT22;7057;49.984;8.404;2023-03-16T10:59:12;10.90;99.90
13970;DHT22;7057;49.984;8.404;2023-03-16T11:01:44;11.00;99.90
13970;DHT22;7057;49.984;8.404;2023-03-16T11:04:13;11.20;99.90
13970;DHT22;7057;49.984;8.404;2023-03-16T11:06:52;11.20;99.90
13970;DHT22;7057;49.984;8.404;2023-03-16T11:09:23;10.90;99.90
13970;DHT22;7057;49.984;8.404;2023-03-16T11:11:53;10.70;99.90
13970;DHT22;7057;49.984;8.404;2023-03-16T11:14:25;10.80;99.90
13970;DHT22;7057;49.984;8.404;2023-03-16T11:16:59;10.80;99.90
13970;DHT22;7057;49.984;8.404;2023-03-16T11:19:29;11.00;99.90
13970;DHT22;7057;49.984;8.404;2023-03-16T11:21:58;11.10;99.90
13970;DHT22;7057;49.984;8.404;2023-03-16T11:24:33;11.10;99.90
13970;DHT22;7057;49.984;8.404;2023-03-16T11:27:10;11.20;99.90
13970;DHT22;7057;49.984;8.404;2023-03-16T11:29:48;11.50;99.90
13970;DHT22;7057;49.984;8.404;2023-03-16T11:32:19;11.80;99.90
13970;DHT22;7057;49.984;8.404;2023-03-16T11:34:49;12.00;99.90
13970;DHT22;7057;49.984;8.404;2023-03-16T11:37:28;12.20;99.90
13970;DHT22;7057;49.984;8.404;2023-03-16T11:40:04;12.30;99.90
13970;DHT22;7057;49.984;8.404;2023-03-16T11:42:46;12.30;99.90
13970;DHT22;7057;49.984;8.404;2023-03-16T11:45:22;12.30;99.90
13970;DHT22;7057;49.984;8.404;2023-03-16T11:48:05;12.20;99.90
13970;DHT22;7057;49.984;8.404;2023-03-16T11:50:44;12.30;99.90
13970;DHT22;7057;49.984;8.404;2023-03-16T11:53:27;12.40;99.90
13970;DHT22;7057;49.984;8.404;2023-03-16T11:56:04;12.70;99.90
13970;DHT22;7057;49.984;8.404;2023-03-16T11:58:45;13.00;99.90
13970;DHT22;7057;49.984;8.404;2023-03-16T12:01:18;13.20;99.90
13970;DHT22;7057;49.984;8.404;2023-03-16T12:06:58;13.60;99.90
13970;DHT22;7057;49.984;8.404;2023-03-16T12:09:49;13.90;99.90
13970;DHT22;7057;49.984;8.404;2023-03-16T12:12:27;14.10;99.90
13970;DHT22;7057;49.984;8.404;2023-03-16T12:15:10;14.30;99.90
13970;DHT22;7057;49.984;8.404;2023-03-16T12:17:43;14.40;99.90
13970;DHT22;7057;49.984;8.404;2023-03-16T12:20:16;14.40;99.90
13970;DHT22;7057;49.984;8.404;2023-03-16T12:22:49;14.20;99.90
13970;DHT22;7057;49.984;8.404;2023-03-16T12:25:21;14.00;99.90
13970;DHT22;7057;49.984;8.404;2023-03-16T12:27:51;14.00;99.90
13970;DHT22;7057;49.984;8.404;2023-03-16T12:30:26;14.10;99.90
13970;DHT22;7057;49.984;8.404;2023-03-16T12:33:05;14.10;99.90
13970;DHT22;7057;49.984;8.404;2023-03-16T12:35:39;14.00;99.90
13970;DHT22;7057;49.984;8.404;2023-03-16T12:41:21;14.10;99.90
13970;DHT22;7057;49.984;8.404;2023-03-16T12:43:59;14.20;99.90
13970;DHT22;7057;49.984;8.404;2023-03-16T12:46:34;14.20;99.90
13970;DHT22;7057;49.984;8.404;2023-03-16T12:51:33;14.00;99.90
13970;DHT22;7057;49.984;8.404;2023-03-16T12:54:01;14.00;99.90
13970;DHT22;7057;49.984;8.404;2023-03-16T12:56:32;14.10;99.90
13970;DHT22;7057;49.984;8.404;2023-03-16T12:59:01;14.10;99.90
13970;DHT22;7057;49.984;8.404;2023-03-16T13:01:36;14.20;99.90
13970;DHT22;7057;49.984;8.404;2023-03-16T13:04:09;14.30;99.90
13970;DHT22;7057;49.984;8.404;2023-03-16T13:06:42;14.40;99.90
13970;DHT22;7057;49.984;8.404;2023-03-16T13:09:10;14.30;99.90
13970;DHT22;7057;49.984;8.404;2023-03-16T13:11:43;14.30;99.90
13970;DHT22;7057;49.984;8.404;2023-03-16T13:14:29;14.40;99.90
13970;DHT22;7057;49.984;8.404;2023-03-16T13:17:04;14.50;99.90
13970;DHT22;7057;49.984;8.404;2023-03-16T13:19:32;14.60;99.90
13970;DHT22;7057;49.984;8.404;2023-03-16T13:22:18;14.60;99.90
13970;DHT22;7057;49.984;8.404;2023-03-16T13:24:50;14.50;99.90
13970;DHT22;7057;49.984;8.404;2023-03-16T13:27:22;14.50;99.90
13970;DHT22;7057;49.984;8.404;2023-03-16T13:29:54;14.50;99.90
13970;DHT22;7057;49.984;8.404;2023-03-16T13:32:25;14.50;99.90
13970;DHT22;7057;49.984;8.404;2023-03-16T13:34:56;14.40;99.90
13970;DHT22;7057;49.984;8.404;2023-03-16T13:37:26;14.40;99.90
13970;DHT22;7057;49.984;8.404;2023-03-16T13:39:55;14.50;99.90
13970;DHT22;7057;49.984;8.404;2023-03-16T13:42:24;14.60;99.90
13970;DHT22;7057;49.984;8.404;2023-03-16T13:44:52;14.70;99.90
13970;DHT22;7057;49.984;8.404;2023-03-16T13:47:20;14.70;99.90
13970;DHT22;7057;49.984;8.404;2023-03-16T13:49:53;14.70;99.90
13970;DHT22;7057;49.984;8.404;2023-03-16T13:52:25;14.80;99.90
13970;DHT22;7057;49.984;8.404;2023-03-16T13:54:53;14.80;99.90
13970;DHT22;7057;49.984;8.404;2023-03-16T13:57:23;14.70;99.90
13970;DHT22;7057;49.984;8.404;2023-03-16T13:59:59;14.60;99.90
13970;DHT22;7057;49.984;8.404;2023-03-16T14:02:27;14.50;99.90
13970;DHT22;7057;49.984;8.404;2023-03-16T14:04:55;14.40;99.90
13970;DHT22;7057;49.984;8.404;2023-03-16T14:07:23;14.40;99.90
13970;DHT22;7057;49.984;8.404;2023-03-16T14:09:51;14.40;99.90
13970;DHT22;7057;49.984;8.404;2023-03-16T14:12:19;14.40;99.90
13970;DHT22;7057;49.984;8.404;2023-03-16T14:14:49;14.50;99.90
13970;DHT22;7057;49.984;8.404;2023-03-16T14:17:17;14.50;99.90
13970;DHT22;7057;49.984;8.404;2023-03-16T14:19:46;14.40;99.90
13970;DHT22;7057;49.984;8.404;2023-03-16T14:22:18;14.30;99.90
13970;DHT22;7057;49.984;8.404;2023-03-16T14:24:51;14.40;99.90
13970;DHT22;7057;49.984;8.404;2023-03-16T14:27:24;14.50;99.90
13970;DHT22;7057;49.984;8.404;2023-03-16T14:29:56;14.50;99.90
13970;DHT22;7057;49.984;8.404;2023-03-16T14:32:27;14.60;99.90
13970;DHT22;7057;49.984;8.404;2023-03-16T14:35:12;14.80;99.90
13970;DHT22;7057;49.984;8.404;2023-03-16T14:37:42;14.80;99.90
13970;DHT22;7057;49.984;8.404;2023-03-16T14:40:25;14.80;99.90
13970;DHT22;7057;49.984;8.404;2023-03-16T14:42:54;14.70;99.90
13970;DHT22;7057;49.984;8.404;2023-03-16T14:45:28;14.70;99.90
13970;DHT22;7057;49.984;8.404;2023-03-16T14:48:00;14.80;99.90
13970;DHT22;7057;49.984;8.404;2023-03-16T14:50:30;14.80;99.90
13970;DHT22;7057;49.984;8.404;2023-03-16T14:52:59;14.80;99.90
13970;DHT22;7057;49.984;8.404;2023-03-16T14:55:29;14.90;99.90
13970;DHT22;7057;49.984;8.404;2023-03-16T14:57:57;15.00;99.90
13970;DHT22;7057;49.984;8.404;2023-03-16T15:00:24;15.10;99.90
13970;DHT22;7057;49.984;8.404;2023-03-16T15:02:58;15.00;99.90
13970;DHT22;7057;49.984;8.404;2023-03-16T15:05:34;14.70;99.90
13970;DHT22;7057;49.984;8.404;2023-03-16T15:08:04;14.70;99.90
13970;DHT22;7057;49.984;8.404;2023-03-16T15:10:35;14.80;99.90
13970;DHT22;7057;49.984;8.404;2023-03-16T15:13:06;14.80;99.90
13970;DHT22;7057;49.984;8.404;2023-03-16T15:15:41;14.90;99.90
13970;DHT22;7057;49.984;8.404;2023-03-16T15:18:09;14.90;99.90
13970;DHT22;7057;49.984;8.404;2023-03-16T15:20:39;14.70;99.90
13970;DHT22;7057;49.984;8.404;2023-03-16T15:23:13;14.60;99.90
13970;DHT22;7057;49.984;8.404;2023-03-16T15:25:42;14.40;99.90
13970;DHT22;7057;49.984;8.404;2023-03-16T15:28:12;14.40;99.90
13970;DHT22;7057;49.984;8.404;2023-03-16T15:30:41;14.20;99.90
13970;DHT22;7057;49.984;8.404;2023-03-16T15:33:10;14.20;99.90
13970;DHT22;7057;49.984;8.404;2023-03-16T15:35:38;14.20;99.90
13970;DHT22;7057;49.984;8.404;2023-03-16T15:38:12;14.20;99.90
13970;DHT22;7057;49.984;8.404;2023-03-16T15:40:41;14.30;99.90
13970;DHT22;7057;49.984;8.404;2023-03-16T15:43:10;14.20;99.90
13970;DHT22;7057;49.984;8.404;2023-03-16T15:45:38;14.30;99.90
13970;DHT22;7057;49.984;8.404;2023-03-16T15:48:05;14.40;99.90
13970;DHT22;7057;49.984;8.404;2023-03-16T15:50:32;14.40;99.90
13970;DHT22;7057;49.984;8.404;2023-03-16T15:53:03;14.50;99.90
13970;DHT22;7057;49.984;8.404;2023-03-16T15:55:35;14.40;99.90
13970;DHT22;7057;49.984;8.404;2023-03-16T15:58:03;14.30;99.90
13970;DHT22;7057;49.984;8.404;2023-03-16T16:00:33;14.20;99.90
13970;DHT22;7057;49.984;8.404;2023-03-16T16:03:02;14.10;99.90
13970;DHT22;7057;49.984;8.404;2023-03-16T16:05:30;14.10;99.90
13970;DHT22;7057;49.984;8.404;2023-03-16T16:07:58;13.90;99.90
13970;DHT22;7057;49.984;8.404;2023-03-16T16:10:25;13.80;99.90
13970;DHT22;7057;49.984;8.404;2023-03-16T16:12:55;13.70;99.90
13970;DHT22;7057;49.984;8.404;2023-03-16T16:15:24;13.60;99.90
13970;DHT22;7057;49.984;8.404;2023-03-16T16:17:52;13.40;99.90
13970;DHT22;7057;49.984;8.404;2023-03-16T16:20:23;13.40;99.90
13970;DHT22;7057;49.984;8.404;2023-03-16T16:22:51;13.20;99.90